createdAt,value
2018-06-04T00:04:56.690Z,15.63
2018-06-04T00:09:59.738Z,18.03
2018-06-04T00:15:02.785Z,18.13
2018-06-04T00:20:05.877Z,16.93
2018-06-04T00:25:08.925Z,16.40
2018-06-04T00:30:12.942Z,16.87
2018-06-04T00:35:15.969Z,17.67
2018-06-04T00:40:19.950Z,16.70
2018-06-04T00:45:42.694Z,16.57
2018-06-04T00:50:45.977Z,16.43
2018-06-04T00:56:00.309Z,15.10
2018-06-04T01:01:03.373Z,15.70
2018-06-04T01:06:06.430Z,16.27
2018-06-04T01:11:10.014Z,17.47
2018-06-04T01:16:13.079Z,16.07
2018-06-04T01:21:17.154Z,15.60
2018-06-04T01:26:43.945Z,15.90
2018-06-04T01:31:47.433Z,15.57
2018-06-04T01:37:16.345Z,16.47
2018-06-04T01:42:19.877Z,15.37
2018-06-04T01:47:22.929Z,13.57
2018-06-04T01:52:25.977Z,13.53
2018-06-04T01:57:29.033Z,14.90
2018-06-04T02:02:39.561Z,15.23
2018-06-04T02:07:42.584Z,16.30
2018-06-04T02:12:45.649Z,15.77
2018-06-04T02:17:49.613Z,15.33
2018-06-04T02:22:52.541Z,14.57
2018-06-04T02:27:56.026Z,15.00
2018-06-04T02:33:10.858Z,14.60
2018-06-04T02:38:14.222Z,13.57
2018-06-04T02:43:17.546Z,12.73
2018-06-04T02:48:20.390Z,12.30
2018-06-04T02:53:23.434Z,12.53
2018-06-04T02:58:27.189Z,13.20
2018-06-04T03:03:30.487Z,12.73
2018-06-04T03:08:33.610Z,13.20
2018-06-04T03:13:36.648Z,13.97
2018-06-04T03:18:39.694Z,14.27
2018-06-04T03:23:42.754Z,13.37
2018-06-04T03:28:45.809Z,14.80
2018-06-04T03:33:48.742Z,13.73
2018-06-04T03:38:51.800Z,14.77
2018-06-04T03:43:54.910Z,14.13
2018-06-04T03:48:57.953Z,14.43
2018-06-04T03:54:01.045Z,14.33
2018-06-04T03:59:04.568Z,14.63
2018-06-04T04:04:07.926Z,15.07
2018-06-04T04:09:11.066Z,15.63
2018-06-04T04:14:14.125Z,15.77
2018-06-04T04:19:17.183Z,14.73
2018-06-04T04:24:20.219Z,14.70
2018-06-04T04:29:23.289Z,17.33
2018-06-04T04:34:26.436Z,16.60
2018-06-04T04:39:30.368Z,17.93
2018-06-04T04:44:33.406Z,16.73
2018-06-04T04:49:48.524Z,18.10
2018-06-04T04:54:51.581Z,18.77
2018-06-04T04:59:54.649Z,18.77
2018-06-04T05:04:57.681Z,16.80
2018-06-04T05:10:00.758Z,17.47
2018-06-04T05:15:03.813Z,18.37
2018-06-04T05:20:08.035Z,18.13
2018-06-04T05:25:11.102Z,19.40
2018-06-04T05:30:14.153Z,19.10
2018-06-04T05:35:17.193Z,19.13
2018-06-04T05:40:20.247Z,17.83
2018-06-04T05:45:23.298Z,19.03
2018-06-04T05:50:26.873Z,19.27
2018-06-04T05:55:29.957Z,18.87
2018-06-04T06:00:49.275Z,21.37
2018-06-04T06:05:52.556Z,25.83
2018-06-04T06:10:55.594Z,26.43
2018-06-04T06:16:17.339Z,20.90
2018-06-04T06:21:20.606Z,20.13
2018-06-04T06:26:23.890Z,20.83
2018-06-04T06:31:27.162Z,21.13
2018-06-04T06:36:30.209Z,21.13
2018-06-04T06:41:33.263Z,22.00
2018-06-04T06:46:36.309Z,22.83
2018-06-04T06:51:40.070Z,23.40
2018-06-04T06:56:43.117Z,23.33
2018-06-04T07:01:53.649Z,22.40
2018-06-04T07:06:56.658Z,22.20
2018-06-04T07:12:00.093Z,21.60
2018-06-04T07:17:03.146Z,21.77
2018-06-04T07:22:06.706Z,21.13
2018-06-04T07:27:29.610Z,20.67
2018-06-04T07:32:32.957Z,20.47
2018-06-04T07:37:36.335Z,16.50
2018-06-04T07:42:39.509Z,18.93
2018-06-04T07:47:42.624Z,19.53
2018-06-04T07:52:45.658Z,18.37
2018-06-04T07:57:48.702Z,16.87
2018-06-04T08:02:51.813Z,17.43
2018-06-04T08:07:54.866Z,15.50
2018-06-04T08:12:58.964Z,14.43
2018-06-04T08:18:02.230Z,15.00
2018-06-04T08:23:05.328Z,15.13
2018-06-04T08:28:08.381Z,14.47
2018-06-04T08:33:11.441Z,15.43
2018-06-04T08:38:15.036Z,13.03
2018-06-04T08:43:26.231Z,12.67
2018-06-04T08:48:29.266Z,10.73
2018-06-04T08:53:32.318Z,13.97
2018-06-04T08:58:35.366Z,11.70
2018-06-04T09:03:52.836Z,11.70
2018-06-04T09:09:20.609Z,12.90
2018-06-04T09:14:23.654Z,13.63
2018-06-04T09:19:27.482Z,10.50
2018-06-04T09:24:30.598Z,10.50
2018-06-04T09:29:33.729Z,11.17
2018-06-04T09:34:36.791Z,10.10
2018-06-04T09:39:40.325Z,9.43
2018-06-04T09:44:43.629Z,8.80
2018-06-04T09:49:46.670Z,7.93
2018-06-04T09:54:49.714Z,7.47
2018-06-04T09:59:52.758Z,7.73
2018-06-04T10:04:55.873Z,10.80
2018-06-04T10:09:58.971Z,9.77
2018-06-04T10:15:02.552Z,7.80
2018-06-04T10:20:05.890Z,7.00
2018-06-04T10:25:08.977Z,6.17
2018-06-04T10:30:12.218Z,8.27
2018-06-04T10:35:15.435Z,6.17
2018-06-04T10:40:18.474Z,7.10
2018-06-04T10:45:21.521Z,6.40
2018-06-04T10:50:24.579Z,10.17
2018-06-04T10:55:27.625Z,7.90
2018-06-04T11:00:30.694Z,7.73
2018-06-04T11:05:50.223Z,6.83
2018-06-04T11:10:53.454Z,6.77
2018-06-04T11:15:57.644Z,7.10
2018-06-04T11:21:00.741Z,7.13
2018-06-04T11:26:03.836Z,6.90
2018-06-04T11:31:07.218Z,6.80
2018-06-04T11:36:10.298Z,9.27
2018-06-04T11:41:13.558Z,12.13
2018-06-04T11:46:16.766Z,13.83
2018-06-04T11:51:20.055Z,13.73
2018-06-04T11:56:23.315Z,11.90
2018-06-04T12:01:26.353Z,11.23
2018-06-04T12:06:30.216Z,11.97
2018-06-04T12:11:33.328Z,11.60
2018-06-04T12:16:36.372Z,15.83
2018-06-04T12:22:00.356Z,15.07
2018-06-04T12:27:03.410Z,13.80
2018-06-04T12:32:07.119Z,13.73
2018-06-04T12:37:10.161Z,13.53
2018-06-04T12:42:13.204Z,13.60
2018-06-04T12:47:16.289Z,14.37
2018-06-04T12:52:19.351Z,18.90
2018-06-04T12:57:22.518Z,16.60
2018-06-04T13:02:25.565Z,17.37
2018-06-04T13:07:58.914Z,18.13
2018-06-04T13:13:02.158Z,17.70
2018-06-04T13:18:23.945Z,17.40
2018-06-04T13:23:27.005Z,16.73
2018-06-04T13:28:41.351Z,17.63
2018-06-04T13:33:44.445Z,19.23
2018-06-04T13:38:47.509Z,18.73
2018-06-04T13:43:50.557Z,17.43
2018-06-04T13:48:53.605Z,16.97
2018-06-04T13:54:03.205Z,17.43
2018-06-04T13:59:06.263Z,13.73
2018-06-04T14:04:09.308Z,14.70
2018-06-04T14:09:12.376Z,14.47
2018-06-04T14:14:15.287Z,14.83
2018-06-04T14:19:18.476Z,14.10
2018-06-04T14:24:21.521Z,13.43
2018-06-04T14:29:28.962Z,14.80
2018-06-04T14:34:34.790Z,14.83
2018-06-04T14:39:37.997Z,14.53
2018-06-04T14:44:41.044Z,13.40
2018-06-04T14:49:44.101Z,14.13
2018-06-04T14:54:47.159Z,13.63
2018-06-04T14:59:50.294Z,14.13
2018-06-04T15:04:53.363Z,14.23
2018-06-04T15:10:03.285Z,14.07
2018-06-04T15:15:06.642Z,14.87
2018-06-04T15:20:09.685Z,15.03
2018-06-04T15:25:12.736Z,15.77
2018-06-04T15:30:15.814Z,14.80
2018-06-04T15:35:18.676Z,15.23
2018-06-04T15:40:21.829Z,15.77
2018-06-04T15:45:24.685Z,15.93
2018-06-04T15:50:27.749Z,15.73
2018-06-04T15:55:30.808Z,15.30
2018-06-04T16:00:33.853Z,15.17
2018-06-04T16:05:36.974Z,14.77
2018-06-04T16:11:03.492Z,16.00
2018-06-04T16:16:07.093Z,15.47
2018-06-04T16:21:10.190Z,14.83
2018-06-04T16:26:13.317Z,15.47
2018-06-04T16:31:16.397Z,19.10
2018-06-04T16:36:19.466Z,19.17
2018-06-04T16:41:22.520Z,18.47
2018-06-04T16:46:34.958Z,20.37
2018-06-04T16:51:40.628Z,17.47
2018-06-04T16:56:43.672Z,19.43
2018-06-04T17:01:59.901Z,20.33
2018-06-04T17:07:02.941Z,16.93
2018-06-04T17:12:05.994Z,16.87
2018-06-04T17:17:09.057Z,15.60
2018-06-04T17:22:12.137Z,16.97
2018-06-04T17:27:15.191Z,15.73
2018-06-04T17:32:18.303Z,16.90
2018-06-04T17:37:21.369Z,16.50
2018-06-04T17:42:24.457Z,16.20
2018-06-04T17:47:33.593Z,17.13
2018-06-04T17:52:36.661Z,16.57
2018-06-04T17:57:39.801Z,16.83
2018-06-04T18:02:45.166Z,17.70
2018-06-04T18:07:50.994Z,15.50
2018-06-04T18:12:54.264Z,17.97
2018-06-04T18:17:58.824Z,17.83
2018-06-04T18:23:02.305Z,18.10
2018-06-04T18:28:30.333Z,18.10
2018-06-04T18:33:37.592Z,18.27
2018-06-04T18:38:40.811Z,16.60
2018-06-04T18:43:44.137Z,16.70
2018-06-04T18:48:47.217Z,16.77
2018-06-04T18:53:50.337Z,18.43
2018-06-04T18:58:53.396Z,15.77
2018-06-04T19:03:56.468Z,15.83
2018-06-04T19:09:02.643Z,16.07
2018-06-04T19:14:05.969Z,16.27
2018-06-04T19:19:11.394Z,15.97
2018-06-04T19:24:14.549Z,16.20
2018-06-04T19:29:17.705Z,15.93
2018-06-04T19:34:20.772Z,15.00
2018-06-04T19:39:24.096Z,15.13
2018-06-04T19:44:34.569Z,16.53
2018-06-04T19:50:11.287Z,15.63
2018-06-04T19:55:14.341Z,15.57
2018-06-04T20:00:17.397Z,16.27
2018-06-04T20:05:20.453Z,15.90
2018-06-04T20:10:23.520Z,15.33
2018-06-04T20:15:26.637Z,18.43
2018-06-04T20:20:29.765Z,18.60
2018-06-04T20:25:32.755Z,19.67
2018-06-04T20:30:35.846Z,19.20
2018-06-04T20:35:40.896Z,19.87
2018-06-04T20:40:43.953Z,19.90
2018-06-04T20:45:47.140Z,22.43
2018-06-04T20:50:50.197Z,23.70
2018-06-04T20:56:04.343Z,23.50
2018-06-04T21:01:07.533Z,24.60
2018-06-04T21:06:10.592Z,24.17
2018-06-04T21:11:13.655Z,24.77
2018-06-04T21:16:16.714Z,25.43
2018-06-04T21:21:19.796Z,26.03
2018-06-04T21:26:22.937Z,26.13
2018-06-04T21:31:26.305Z,24.97
2018-06-04T21:36:29.369Z,25.97
2018-06-04T21:41:32.428Z,26.40
2018-06-04T21:46:35.593Z,25.17
2018-06-04T21:51:38.649Z,25.57
2018-06-04T21:56:46.961Z,25.10
2018-06-04T22:01:50.006Z,24.73
2018-06-04T22:06:53.120Z,25.33
2018-06-04T22:11:56.177Z,24.90
2018-06-04T22:16:59.278Z,25.00
2018-06-04T22:22:02.296Z,24.30
2018-06-04T22:27:05.450Z,24.97
2018-06-04T22:32:08.449Z,26.10
2018-06-04T22:37:11.495Z,24.47
2018-06-04T22:42:14.540Z,25.90
2018-06-04T22:47:17.598Z,26.07
2018-06-04T22:52:20.666Z,25.40
2018-06-04T22:57:23.733Z,25.00
2018-06-04T23:02:27.868Z,26.00
2018-06-04T23:07:31.030Z,24.90
2018-06-04T23:12:34.076Z,26.73
2018-06-04T23:17:37.134Z,26.20
2018-06-04T23:22:40.196Z,28.10
2018-06-04T23:27:43.243Z,26.70
2018-06-04T23:32:46.300Z,27.93
2018-06-04T23:37:49.360Z,27.63
2018-06-04T23:42:52.421Z,26.93
2018-06-04T23:47:55.469Z,25.50
2018-06-04T23:52:58.569Z,24.10
2018-06-04T23:58:01.633Z,23.60
